sensor_id;sensor_type;location;lat;lon;timestamp;P1;durP1;ratioP1;P2;durP2;ratioP2
50683;SDS011;36654;45.042;38.994;2023-04-03T00:00:28;6.43;;;2.78;;
50683;SDS011;36654;45.042;38.994;2023-04-03T00:02:54;5.97;;;2.80;;
50683;SDS011;36654;45.042;38.994;2023-04-03T00:05:20;3.60;;;2.90;;
50683;SDS011;36654;45.042;38.994;2023-04-03T00:07:45;4.57;;;2.53;;
50683;SDS011;36654;45.042;38.994;2023-04-03T00:10:11;2.60;;;2.30;;
50683;SDS011;36654;45.042;38.994;2023-04-03T00:12:37;2.38;;;2.17;;
50683;SDS011;36654;45.042;38.994;2023-04-03T00:15:03;4.95;;;2.60;;
50683;SDS011;36654;45.042;38.994;2023-04-03T00:17:29;3.33;;;2.70;;
50683;SDS011;36654;45.042;38.994;2023-04-03T00:19:54;3.33;;;2.50;;
50683;SDS011;36654;45.042;38.994;2023-04-03T00:22:20;3.00;;;2.65;;
50683;SDS011;36654;45.042;38.994;2023-04-03T00:24:45;3.70;;;2.47;;
50683;SDS011;36654;45.042;38.994;2023-04-03T00:27:11;3.28;;;2.65;;
50683;SDS011;36654;45.042;38.994;2023-04-03T00:29:36;3.80;;;2.60;;
50683;SDS011;36654;45.042;38.994;2023-04-03T00:32:02;3.88;;;2.65;;
50683;SDS011;36654;45.042;38.994;2023-04-03T00:34:28;3.92;;;2.88;;
50683;SDS011;36654;45.042;38.994;2023-04-03T00:36:53;4.53;;;2.85;;
50683;SDS011;36654;45.042;38.994;2023-04-03T00:39:19;3.22;;;2.50;;
50683;SDS011;36654;45.042;38.994;2023-04-03T00:41:45;4.90;;;2.50;;
50683;SDS011;36654;45.042;38.994;2023-04-03T00:47:03;4.70;;;2.40;;
50683;SDS011;36654;45.042;38.994;2023-04-03T00:49:30;3.53;;;2.38;;
50683;SDS011;36654;45.042;38.994;2023-04-03T00:51:56;5.22;;;2.30;;
50683;SDS011;36654;45.042;38.994;2023-04-03T00:54:24;3.80;;;2.50;;
50683;SDS011;36654;45.042;38.994;2023-04-03T00:56:51;3.72;;;2.58;;
50683;SDS011;36654;45.042;38.994;2023-04-03T00:59:30;3.20;;;2.15;;
50683;SDS011;36654;45.042;38.994;2023-04-03T01:01:58;5.40;;;2.30;;
50683;SDS011;36654;45.042;38.994;2023-04-03T01:04:29;5.45;;;2.65;;
50683;SDS011;36654;45.042;38.994;2023-04-03T01:07:01;3.72;;;2.63;;
50683;SDS011;36654;45.042;38.994;2023-04-03T01:09:39;3.42;;;2.70;;
50683;SDS011;36654;45.042;38.994;2023-04-03T01:12:25;5.18;;;2.75;;
50683;SDS011;36654;45.042;38.994;2023-04-03T01:14:54;5.55;;;2.58;;
50683;SDS011;36654;45.042;38.994;2023-04-03T01:17:39;3.20;;;2.40;;
50683;SDS011;36654;45.042;38.994;2023-04-03T01:22:59;4.88;;;2.53;;
50683;SDS011;36654;45.042;38.994;2023-04-03T01:25:40;3.30;;;2.42;;
50683;SDS011;36654;45.042;38.994;2023-04-03T01:28:21;3.58;;;2.65;;
50683;SDS011;36654;45.042;38.994;2023-04-03T01:33:23;4.43;;;3.03;;
50683;SDS011;36654;45.042;38.994;2023-04-03T01:35:49;3.13;;;2.72;;
50683;SDS011;36654;45.042;38.994;2023-04-03T01:38:15;2.80;;;2.30;;
50683;SDS011;36654;45.042;38.994;2023-04-03T01:40:41;2.78;;;2.42;;
50683;SDS011;36654;45.042;38.994;2023-04-03T01:43:07;6.38;;;2.50;;
50683;SDS011;36654;45.042;38.994;2023-04-03T01:45:33;3.03;;;2.15;;
50683;SDS011;36654;45.042;38.994;2023-04-03T01:47:59;3.53;;;2.33;;
50683;SDS011;36654;45.042;38.994;2023-04-03T01:50:24;3.15;;;2.38;;
50683;SDS011;36654;45.042;38.994;2023-04-03T01:52:50;5.63;;;2.30;;
50683;SDS011;36654;45.042;38.994;2023-04-03T01:55:16;5.00;;;2.33;;
50683;SDS011;36654;45.042;38.994;2023-04-03T01:57:41;3.50;;;2.53;;
50683;SDS011;36654;45.042;38.994;2023-04-03T02:00:07;5.22;;;2.65;;
50683;SDS011;36654;45.042;38.994;2023-04-03T02:02:33;4.30;;;2.47;;
50683;SDS011;36654;45.042;38.994;2023-04-03T02:04:59;3.67;;;2.10;;
50683;SDS011;36654;45.042;38.994;2023-04-03T02:07:24;4.10;;;2.75;;
50683;SDS011;36654;45.042;38.994;2023-04-03T02:09:50;2.83;;;2.28;;
50683;SDS011;36654;45.042;38.994;2023-04-03T02:12:15;3.95;;;2.20;;
50683;SDS011;36654;45.042;38.994;2023-04-03T02:14:41;3.75;;;2.53;;
50683;SDS011;36654;45.042;38.994;2023-04-03T02:17:07;2.88;;;2.30;;
50683;SDS011;36654;45.042;38.994;2023-04-03T02:19:36;3.20;;;2.35;;
50683;SDS011;36654;45.042;38.994;2023-04-03T02:22:02;3.80;;;2.50;;
50683;SDS011;36654;45.042;38.994;2023-04-03T02:24:29;4.60;;;2.60;;
50683;SDS011;36654;45.042;38.994;2023-04-03T02:26:55;2.90;;;2.45;;
50683;SDS011;36654;45.042;38.994;2023-04-03T02:29:20;5.28;;;2.50;;
50683;SDS011;36654;45.042;38.994;2023-04-03T02:31:46;5.82;;;2.47;;
50683;SDS011;36654;45.042;38.994;2023-04-03T02:34:11;6.13;;;2.50;;
50683;SDS011;36654;45.042;38.994;2023-04-03T02:36:37;6.80;;;2.63;;
50683;SDS011;36654;45.042;38.994;2023-04-03T02:39:03;2.63;;;2.30;;
50683;SDS011;36654;45.042;38.994;2023-04-03T02:41:29;6.57;;;2.67;;
50683;SDS011;36654;45.042;38.994;2023-04-03T02:44:00;5.35;;;2.67;;
50683;SDS011;36654;45.042;38.994;2023-04-03T02:46:27;4.18;;;2.40;;
50683;SDS011;36654;45.042;38.994;2023-04-03T02:48:52;4.97;;;2.72;;
50683;SDS011;36654;45.042;38.994;2023-04-03T02:51:18;4.00;;;2.50;;
50683;SDS011;36654;45.042;38.994;2023-04-03T02:53:43;4.03;;;2.85;;
50683;SDS011;36654;45.042;38.994;2023-04-03T02:56:09;3.95;;;2.83;;
50683;SDS011;36654;45.042;38.994;2023-04-03T02:58:35;3.78;;;2.70;;
50683;SDS011;36654;45.042;38.994;2023-04-03T03:01:00;4.88;;;2.78;;
50683;SDS011;36654;45.042;38.994;2023-04-03T03:03:26;8.15;;;3.05;;
50683;SDS011;36654;45.042;38.994;2023-04-03T03:06:05;3.45;;;3.10;;
50683;SDS011;36654;45.042;38.994;2023-04-03T03:08:35;6.13;;;3.53;;
50683;SDS011;36654;45.042;38.994;2023-04-03T03:11:02;6.40;;;3.55;;
50683;SDS011;36654;45.042;38.994;2023-04-03T03:13:29;6.95;;;3.85;;
50683;SDS011;36654;45.042;38.994;2023-04-03T03:15:55;5.88;;;3.83;;
50683;SDS011;36654;45.042;38.994;2023-04-03T03:18:21;5.88;;;3.15;;
50683;SDS011;36654;45.042;38.994;2023-04-03T03:20:47;8.30;;;3.33;;
50683;SDS011;36654;45.042;38.994;2023-04-03T03:23:20;6.85;;;3.35;;
50683;SDS011;36654;45.042;38.994;2023-04-03T03:25:47;6.15;;;3.40;;
50683;SDS011;36654;45.042;38.994;2023-04-03T03:28:12;7.65;;;3.70;;
50683;SDS011;36654;45.042;38.994;2023-04-03T03:30:38;5.55;;;3.92;;
50683;SDS011;36654;45.042;38.994;2023-04-03T03:33:03;6.72;;;4.10;;
50683;SDS011;36654;45.042;38.994;2023-04-03T03:35:29;6.65;;;4.00;;
50683;SDS011;36654;45.042;38.994;2023-04-03T03:37:55;7.13;;;3.88;;
50683;SDS011;36654;45.042;38.994;2023-04-03T03:40:20;6.30;;;4.00;;
50683;SDS011;36654;45.042;38.994;2023-04-03T03:42:46;8.43;;;4.43;;
50683;SDS011;36654;45.042;38.994;2023-04-03T03:45:12;8.57;;;4.13;;
50683;SDS011;36654;45.042;38.994;2023-04-03T03:47:37;8.05;;;4.32;;
50683;SDS011;36654;45.042;38.994;2023-04-03T03:50:03;8.27;;;4.38;;
50683;SDS011;36654;45.042;38.994;2023-04-03T03:52:29;7.20;;;3.92;;
50683;SDS011;36654;45.042;38.994;2023-04-03T03:54:55;10.02;;;4.45;;
50683;SDS011;36654;45.042;38.994;2023-04-03T03:57:21;6.45;;;4.32;;
50683;SDS011;36654;45.042;38.994;2023-04-03T03:59:47;7.40;;;4.05;;
50683;SDS011;36654;45.042;38.994;2023-04-03T04:02:14;7.03;;;4.68;;
50683;SDS011;36654;45.042;38.994;2023-04-03T04:04:40;5.32;;;4.07;;
50683;SDS011;36654;45.042;38.994;2023-04-03T04:07:05;7.93;;;3.92;;
50683;SDS011;36654;45.042;38.994;2023-04-03T04:09:31;8.57;;;4.90;;
50683;SDS011;36654;45.042;38.994;2023-04-03T04:11:57;7.22;;;4.40;;
50683;SDS011;36654;45.042;38.994;2023-04-03T04:14:22;7.35;;;4.32;;
50683;SDS011;36654;45.042;38.994;2023-04-03T04:16:48;8.30;;;4.43;;
50683;SDS011;36654;45.042;38.994;2023-04-03T04:19:14;6.97;;;4.10;;
50683;SDS011;36654;45.042;38.994;2023-04-03T04:21:40;9.70;;;4.75;;
50683;SDS011;36654;45.042;38.994;2023-04-03T04:24:07;7.95;;;4.40;;
50683;SDS011;36654;45.042;38.994;2023-04-03T04:26:33;8.10;;;4.50;;
50683;SDS011;36654;45.042;38.994;2023-04-03T04:28:59;10.00;;;4.85;;
50683;SDS011;36654;45.042;38.994;2023-04-03T04:31:25;9.68;;;4.60;;
50683;SDS011;36654;45.042;38.994;2023-04-03T04:33:51;9.32;;;5.07;;
50683;SDS011;36654;45.042;38.994;2023-04-03T04:36:17;7.45;;;4.40;;
50683;SDS011;36654;45.042;38.994;2023-04-03T04:38:43;10.10;;;4.13;;
50683;SDS011;36654;45.042;38.994;2023-04-03T04:41:09;6.65;;;4.45;;
50683;SDS011;36654;45.042;38.994;2023-04-03T04:43:34;5.22;;;4.50;;
50683;SDS011;36654;45.042;38.994;2023-04-03T04:46:03;6.65;;;4.45;;
50683;SDS011;36654;45.042;38.994;2023-04-03T04:48:31;7.55;;;4.20;;
50683;SDS011;36654;45.042;38.994;2023-04-03T04:50:57;9.38;;;4.15;;
50683;SDS011;36654;45.042;38.994;2023-04-03T04:53:22;6.93;;;4.82;;
50683;SDS011;36654;45.042;38.994;2023-04-03T04:55:48;8.25;;;4.47;;
50683;SDS011;36654;45.042;38.994;2023-04-03T04:58:14;9.43;;;4.53;;
50683;SDS011;36654;45.042;38.994;2023-04-03T05:00:40;7.07;;;4.88;;
50683;SDS011;36654;45.042;38.994;2023-04-03T05:03:05;5.72;;;4.53;;
50683;SDS011;36654;45.042;38.994;2023-04-03T05:05:31;7.93;;;4.25;;
50683;SDS011;36654;45.042;38.994;2023-04-03T05:07:57;8.65;;;5.15;;
50683;SDS011;36654;45.042;38.994;2023-04-03T05:10:22;8.23;;;5.18;;
50683;SDS011;36654;45.042;38.994;2023-04-03T05:12:48;6.13;;;4.80;;
50683;SDS011;36654;45.042;38.994;2023-04-03T05:15:14;6.80;;;5.00;;
50683;SDS011;36654;45.042;38.994;2023-04-03T05:17:40;8.32;;;5.25;;
50683;SDS011;36654;45.042;38.994;2023-04-03T05:20:05;7.90;;;5.15;;
50683;SDS011;36654;45.042;38.994;2023-04-03T05:22:31;8.52;;;5.47;;
50683;SDS011;36654;45.042;38.994;2023-04-03T05:24:57;11.88;;;6.47;;
50683;SDS011;36654;45.042;38.994;2023-04-03T05:27:23;14.55;;;7.35;;
50683;SDS011;36654;45.042;38.994;2023-04-03T05:29:49;10.10;;;5.32;;
50683;SDS011;36654;45.042;38.994;2023-04-03T05:32:17;10.75;;;5.70;;
50683;SDS011;36654;45.042;38.994;2023-04-03T05:34:43;9.70;;;4.80;;
50683;SDS011;36654;45.042;38.994;2023-04-03T05:37:08;10.18;;;4.85;;
50683;SDS011;36654;45.042;38.994;2023-04-03T05:39:34;6.85;;;4.57;;
50683;SDS011;36654;45.042;38.994;2023-04-03T05:42:00;7.63;;;4.80;;
50683;SDS011;36654;45.042;38.994;2023-04-03T05:44:25;7.05;;;4.38;;
50683;SDS011;36654;45.042;38.994;2023-04-03T05:46:51;5.53;;;4.28;;
50683;SDS011;36654;45.042;38.994;2023-04-03T05:49:17;5.10;;;4.07;;
50683;SDS011;36654;45.042;38.994;2023-04-03T05:51:42;7.93;;;4.32;;
50683;SDS011;36654;45.042;38.994;2023-04-03T05:54:12;7.43;;;5.18;;
50683;SDS011;36654;45.042;38.994;2023-04-03T05:56:49;11.18;;;5.35;;
50683;SDS011;36654;45.042;38.994;2023-04-03T05:59:16;7.22;;;5.13;;
50683;SDS011;36654;45.042;38.994;2023-04-03T06:01:42;11.48;;;5.55;;
50683;SDS011;36654;45.042;38.994;2023-04-03T06:04:08;8.00;;;5.00;;
50683;SDS011;36654;45.042;38.994;2023-04-03T06:09:12;7.95;;;4.53;;
50683;SDS011;36654;45.042;38.994;2023-04-03T06:11:38;6.28;;;4.20;;
50683;SDS011;36654;45.042;38.994;2023-04-03T06:14:04;10.93;;;4.72;;
50683;SDS011;36654;45.042;38.994;2023-04-03T06:16:29;4.78;;;4.05;;
50683;SDS011;36654;45.042;38.994;2023-04-03T06:18:55;8.63;;;5.15;;
50683;SDS011;36654;45.042;38.994;2023-04-03T06:21:21;6.63;;;4.35;;
50683;SDS011;36654;45.042;38.994;2023-04-03T06:23:46;11.93;;;5.63;;
50683;SDS011;36654;45.042;38.994;2023-04-03T06:26:12;7.72;;;4.32;;
50683;SDS011;36654;45.042;38.994;2023-04-03T06:28:38;5.45;;;4.53;;
50683;SDS011;36654;45.042;38.994;2023-04-03T06:31:03;9.48;;;4.10;;
50683;SDS011;36654;45.042;38.994;2023-04-03T06:33:29;12.05;;;6.45;;
50683;SDS011;36654;45.042;38.994;2023-04-03T06:35:56;4.82;;;3.88;;
50683;SDS011;36654;45.042;38.994;2023-04-03T06:38:23;7.50;;;4.35;;
50683;SDS011;36654;45.042;38.994;2023-04-03T06:40:48;7.10;;;4.18;;
50683;SDS011;36654;45.042;38.994;2023-04-03T06:43:14;7.10;;;3.83;;
50683;SDS011;36654;45.042;38.994;2023-04-03T06:45:40;4.90;;;4.10;;
50683;SDS011;36654;45.042;38.994;2023-04-03T06:48:05;6.07;;;4.13;;
50683;SDS011;36654;45.042;38.994;2023-04-03T06:50:31;4.43;;;3.70;;
50683;SDS011;36654;45.042;38.994;2023-04-03T06:52:56;5.20;;;3.60;;
50683;SDS011;36654;45.042;38.994;2023-04-03T06:55:22;6.80;;;3.90;;
50683;SDS011;36654;45.042;38.994;2023-04-03T06:57:48;6.60;;;4.47;;
50683;SDS011;36654;45.042;38.994;2023-04-03T07:00:13;5.50;;;4.20;;
50683;SDS011;36654;45.042;38.994;2023-04-03T07:02:41;4.57;;;3.80;;
50683;SDS011;36654;45.042;38.994;2023-04-03T07:05:07;6.45;;;4.07;;
50683;SDS011;36654;45.042;38.994;2023-04-03T07:07:32;4.70;;;3.83;;
50683;SDS011;36654;45.042;38.994;2023-04-03T07:09:59;4.85;;;3.97;;
50683;SDS011;36654;45.042;38.994;2023-04-03T07:12:25;4.75;;;3.58;;
50683;SDS011;36654;45.042;38.994;2023-04-03T07:14:51;6.43;;;4.28;;
50683;SDS011;36654;45.042;38.994;2023-04-03T07:17:16;5.75;;;4.20;;
50683;SDS011;36654;45.042;38.994;2023-04-03T07:19:42;4.97;;;4.30;;
50683;SDS011;36654;45.042;38.994;2023-04-03T07:22:08;6.07;;;4.40;;
50683;SDS011;36654;45.042;38.994;2023-04-03T07:24:36;7.38;;;5.68;;
50683;SDS011;36654;45.042;38.994;2023-04-03T07:27:02;4.90;;;4.05;;
50683;SDS011;36654;45.042;38.994;2023-04-03T07:29:28;8.85;;;4.40;;
50683;SDS011;36654;45.042;38.994;2023-04-03T07:31:55;6.85;;;4.88;;
50683;SDS011;36654;45.042;38.994;2023-04-03T07:34:21;6.50;;;4.97;;
50683;SDS011;36654;45.042;38.994;2023-04-03T07:36:47;6.65;;;5.60;;
50683;SDS011;36654;45.042;38.994;2023-04-03T07:39:12;5.97;;;5.15;;
50683;SDS011;36654;45.042;38.994;2023-04-03T07:41:38;9.07;;;5.40;;
50683;SDS011;36654;45.042;38.994;2023-04-03T07:44:04;5.97;;;3.85;;
50683;SDS011;36654;45.042;38.994;2023-04-03T07:46:30;4.53;;;3.70;;
50683;SDS011;36654;45.042;38.994;2023-04-03T07:48:57;4.82;;;4.30;;
50683;SDS011;36654;45.042;38.994;2023-04-03T07:51:22;4.38;;;3.42;;
50683;SDS011;36654;45.042;38.994;2023-04-03T07:53:49;4.38;;;3.40;;
50683;SDS011;36654;45.042;38.994;2023-04-03T07:56:16;7.20;;;3.95;;
50683;SDS011;36654;45.042;38.994;2023-04-03T07:58:42;5.75;;;4.30;;
50683;SDS011;36654;45.042;38.994;2023-04-03T08:01:07;3.47;;;3.17;;
50683;SDS011;36654;45.042;38.994;2023-04-03T08:03:33;5.47;;;3.50;;
50683;SDS011;36654;45.042;38.994;2023-04-03T08:06:03;5.55;;;4.45;;
50683;SDS011;36654;45.042;38.994;2023-04-03T08:08:30;5.45;;;4.65;;
50683;SDS011;36654;45.042;38.994;2023-04-03T08:10:57;6.25;;;4.90;;
50683;SDS011;36654;45.042;38.994;2023-04-03T08:13:25;6.13;;;4.53;;
50683;SDS011;36654;45.042;38.994;2023-04-03T08:15:51;4.85;;;4.25;;
50683;SDS011;36654;45.042;38.994;2023-04-03T08:18:16;5.57;;;3.65;;
50683;SDS011;36654;45.042;38.994;2023-04-03T08:20:46;5.28;;;3.40;;
50683;SDS011;36654;45.042;38.994;2023-04-03T08:23:12;5.57;;;3.45;;
50683;SDS011;36654;45.042;38.994;2023-04-03T08:25:39;4.07;;;3.67;;
50683;SDS011;36654;45.042;38.994;2023-04-03T08:28:06;7.03;;;4.18;;
50683;SDS011;36654;45.042;38.994;2023-04-03T08:30:31;5.60;;;4.30;;
50683;SDS011;36654;45.042;38.994;2023-04-03T08:32:57;7.72;;;4.32;;
50683;SDS011;36654;45.042;38.994;2023-04-03T08:35:26;8.65;;;5.07;;
50683;SDS011;36654;45.042;38.994;2023-04-03T08:37:52;5.68;;;5.05;;
50683;SDS011;36654;45.042;38.994;2023-04-03T08:40:18;5.03;;;4.45;;
50683;SDS011;36654;45.042;38.994;2023-04-03T08:47:55;6.40;;;4.15;;
50683;SDS011;36654;45.042;38.994;2023-04-03T08:50:30;4.38;;;3.53;;
50683;SDS011;36654;45.042;38.994;2023-04-03T08:53:00;5.18;;;3.38;;
50683;SDS011;36654;45.042;38.994;2023-04-03T08:55:33;4.70;;;3.88;;
50683;SDS011;36654;45.042;38.994;2023-04-03T08:58:12;7.47;;;4.05;;
50683;SDS011;36654;45.042;38.994;2023-04-03T09:00:46;4.35;;;3.85;;
50683;SDS011;36654;45.042;38.994;2023-04-03T09:03:16;6.38;;;4.00;;
50683;SDS011;36654;45.042;38.994;2023-04-03T09:10:59;3.40;;;3.08;;
50683;SDS011;36654;45.042;38.994;2023-04-03T09:13:57;3.58;;;3.03;;
50683;SDS011;36654;45.042;38.994;2023-04-03T09:19:31;4.05;;;3.15;;
50683;SDS011;36654;45.042;38.994;2023-04-03T09:22:02;3.20;;;2.90;;
50683;SDS011;36654;45.042;38.994;2023-04-03T09:24:39;3.70;;;3.15;;
50683;SDS011;36654;45.042;38.994;2023-04-03T09:27:06;6.60;;;3.42;;
50683;SDS011;36654;45.042;38.994;2023-04-03T09:29:35;8.93;;;3.85;;
50683;SDS011;36654;45.042;38.994;2023-04-03T09:32:48;4.43;;;3.05;;
50683;SDS011;36654;45.042;38.994;2023-04-03T09:34:57;4.05;;;3.13;;
50683;SDS011;36654;45.042;38.994;2023-04-03T09:37:42;3.58;;;3.20;;
50683;SDS011;36654;45.042;38.994;2023-04-03T09:42:50;3.60;;;3.10;;
50683;SDS011;36654;45.042;38.994;2023-04-03T09:50:32;4.63;;;3.25;;
50683;SDS011;36654;45.042;38.994;2023-04-03T09:53:04;4.18;;;3.35;;
50683;SDS011;36654;45.042;38.994;2023-04-03T09:55:32;3.47;;;3.17;;
50683;SDS011;36654;45.042;38.994;2023-04-03T09:58:22;3.17;;;2.88;;
50683;SDS011;36654;45.042;38.994;2023-04-03T10:00:55;3.83;;;2.72;;
50683;SDS011;36654;45.042;38.994;2023-04-03T10:05:57;2.97;;;2.72;;
50683;SDS011;36654;45.042;38.994;2023-04-03T10:08:33;3.45;;;3.13;;
50683;SDS011;36654;45.042;38.994;2023-04-03T10:11:13;5.75;;;2.92;;
50683;SDS011;36654;45.042;38.994;2023-04-03T10:16:29;3.78;;;3.00;;
50683;SDS011;36654;45.042;38.994;2023-04-03T10:22:40;5.25;;;3.20;;
50683;SDS011;36654;45.042;38.994;2023-04-03T10:24:56;3.20;;;2.65;;
50683;SDS011;36654;45.042;38.994;2023-04-03T10:27:44;4.15;;;3.13;;
50683;SDS011;36654;45.042;38.994;2023-04-03T10:33:39;4.45;;;3.38;;
50683;SDS011;36654;45.042;38.994;2023-04-03T10:41:34;4.90;;;3.20;;
50683;SDS011;36654;45.042;38.994;2023-04-03T10:47:12;4.30;;;3.28;;
50683;SDS011;36654;45.042;38.994;2023-04-03T10:50:07;3.38;;;3.05;;
50683;SDS011;36654;45.042;38.994;2023-04-03T10:53:13;4.45;;;3.40;;
50683;SDS011;36654;45.042;38.994;2023-04-03T10:55:53;3.47;;;3.17;;
50683;SDS011;36654;45.042;38.994;2023-04-03T10:58:29;3.65;;;3.03;;
50683;SDS011;36654;45.042;38.994;2023-04-03T11:01:14;3.45;;;2.97;;
50683;SDS011;36654;45.042;38.994;2023-04-03T11:03:45;4.65;;;3.35;;
50683;SDS011;36654;45.042;38.994;2023-04-03T11:06:18;5.18;;;3.05;;
50683;SDS011;36654;45.042;38.994;2023-04-03T11:11:40;4.55;;;3.00;;
50683;SDS011;36654;45.042;38.994;2023-04-03T11:14:13;3.10;;;2.80;;
50683;SDS011;36654;45.042;38.994;2023-04-03T11:16:48;3.90;;;2.97;;
50683;SDS011;36654;45.042;38.994;2023-04-03T11:22:23;5.75;;;2.97;;
50683;SDS011;36654;45.042;38.994;2023-04-03T11:27:30;3.42;;;3.13;;
50683;SDS011;36654;45.042;38.994;2023-04-03T11:30:06;3.10;;;2.88;;
50683;SDS011;36654;45.042;38.994;2023-04-03T11:32:52;3.38;;;3.00;;
50683;SDS011;36654;45.042;38.994;2023-04-03T11:35:23;5.80;;;3.20;;
50683;SDS011;36654;45.042;38.994;2023-04-03T11:37:52;3.85;;;3.28;;
50683;SDS011;36654;45.042;38.994;2023-04-03T11:40:22;6.03;;;3.40;;
50683;SDS011;36654;45.042;38.994;2023-04-03T11:42:53;3.65;;;3.35;;
50683;SDS011;36654;45.042;38.994;2023-04-03T11:45:32;4.43;;;3.30;;
50683;SDS011;36654;45.042;38.994;2023-04-03T11:48:48;4.15;;;2.85;;
50683;SDS011;36654;45.042;38.994;2023-04-03T11:50:53;3.75;;;2.67;;
50683;SDS011;36654;45.042;38.994;2023-04-03T11:58:29;3.15;;;2.85;;
50683;SDS011;36654;45.042;38.994;2023-04-03T12:16:23;2.90;;;2.70;;
50683;SDS011;36654;45.042;38.994;2023-04-03T12:19:03;4.97;;;2.85;;
50683;SDS011;36654;45.042;38.994;2023-04-03T12:24:26;4.20;;;2.58;;
50683;SDS011;36654;45.042;38.994;2023-04-03T12:39:55;3.60;;;2.30;;
50683;SDS011;36654;45.042;38.994;2023-04-03T12:51:18;3.95;;;2.50;;
50683;SDS011;36654;45.042;38.994;2023-04-03T12:53:51;2.78;;;2.22;;
50683;SDS011;36654;45.042;38.994;2023-04-03T12:56:26;4.65;;;2.53;;
50683;SDS011;36654;45.042;38.994;2023-04-03T12:58:55;6.00;;;2.55;;
50683;SDS011;36654;45.042;38.994;2023-04-03T13:01:39;5.72;;;3.35;;
50683;SDS011;36654;45.042;38.994;2023-04-03T13:04:04;4.10;;;2.92;;
50683;SDS011;36654;45.042;38.994;2023-04-03T13:06:32;2.95;;;2.38;;
50683;SDS011;36654;45.042;38.994;2023-04-03T13:09:03;5.70;;;3.20;;
50683;SDS011;36654;45.042;38.994;2023-04-03T13:11:36;3.70;;;3.25;;
50683;SDS011;36654;45.042;38.994;2023-04-03T13:14:14;3.45;;;3.15;;
50683;SDS011;36654;45.042;38.994;2023-04-03T13:16:56;3.47;;;2.80;;
50683;SDS011;36654;45.042;38.994;2023-04-03T13:19:25;6.28;;;3.08;;
50683;SDS011;36654;45.042;38.994;2023-04-03T13:21:57;7.45;;;3.45;;
50683;SDS011;36654;45.042;38.994;2023-04-03T13:24:23;3.08;;;2.88;;
50683;SDS011;36654;45.042;38.994;2023-04-03T13:26:50;3.47;;;2.95;;
50683;SDS011;36654;45.042;38.994;2023-04-03T13:29:50;2.88;;;2.67;;
50683;SDS011;36654;45.042;38.994;2023-04-03T13:32:17;5.30;;;2.88;;
50683;SDS011;36654;45.042;38.994;2023-04-03T13:34:46;3.75;;;2.53;;
50683;SDS011;36654;45.042;38.994;2023-04-03T13:37:22;3.17;;;2.58;;
50683;SDS011;36654;45.042;38.994;2023-04-03T13:42:35;4.80;;;3.00;;
50683;SDS011;36654;45.042;38.994;2023-04-03T13:45:16;3.85;;;2.45;;
50683;SDS011;36654;45.042;38.994;2023-04-03T13:47:43;3.22;;;2.80;;
50683;SDS011;36654;45.042;38.994;2023-04-03T13:52:55;3.80;;;2.70;;
50683;SDS011;36654;45.042;38.994;2023-04-03T13:55:28;4.72;;;2.97;;
50683;SDS011;36654;45.042;38.994;2023-04-03T13:58:00;3.75;;;3.35;;
50683;SDS011;36654;45.042;38.994;2023-04-03T14:01:00;4.45;;;3.15;;
50683;SDS011;36654;45.042;38.994;2023-04-03T14:03:31;3.90;;;3.50;;
50683;SDS011;36654;45.042;38.994;2023-04-03T14:06:04;2.88;;;2.65;;
50683;SDS011;36654;45.042;38.994;2023-04-03T14:08:31;6.43;;;3.30;;
50683;SDS011;36654;45.042;38.994;2023-04-03T14:10:57;3.60;;;2.92;;
50683;SDS011;36654;45.042;38.994;2023-04-03T14:13:23;3.92;;;2.60;;
50683;SDS011;36654;45.042;38.994;2023-04-03T14:15:49;3.42;;;2.80;;
50683;SDS011;36654;45.042;38.994;2023-04-03T14:18:17;4.32;;;3.00;;
50683;SDS011;36654;45.042;38.994;2023-04-03T14:20:45;3.10;;;2.80;;
50683;SDS011;36654;45.042;38.994;2023-04-03T14:23:12;3.40;;;3.10;;
50683;SDS011;36654;45.042;38.994;2023-04-03T14:25:38;3.63;;;2.70;;
50683;SDS011;36654;45.042;38.994;2023-04-03T14:28:16;3.10;;;2.80;;
50683;SDS011;36654;45.042;38.994;2023-04-03T14:30:43;3.88;;;2.58;;
50683;SDS011;36654;45.042;38.994;2023-04-03T14:33:14;3.90;;;3.08;;
50683;SDS011;36654;45.042;38.994;2023-04-03T14:35:43;3.55;;;2.92;;
50683;SDS011;36654;45.042;38.994;2023-04-03T14:38:28;3.80;;;2.90;;
50683;SDS011;36654;45.042;38.994;2023-04-03T14:40:56;4.20;;;3.10;;
50683;SDS011;36654;45.042;38.994;2023-04-03T14:43:22;5.93;;;2.67;;
50683;SDS011;36654;45.042;38.994;2023-04-03T14:45:48;5.15;;;2.70;;
50683;SDS011;36654;45.042;38.994;2023-04-03T14:48:17;3.50;;;3.05;;
50683;SDS011;36654;45.042;38.994;2023-04-03T14:50:45;3.95;;;2.83;;
50683;SDS011;36654;45.042;38.994;2023-04-03T14:53:11;4.18;;;2.97;;
50683;SDS011;36654;45.042;38.994;2023-04-03T14:55:40;3.58;;;2.88;;
50683;SDS011;36654;45.042;38.994;2023-04-03T14:58:11;3.85;;;2.78;;
50683;SDS011;36654;45.042;38.994;2023-04-03T15:00:38;5.18;;;2.95;;
50683;SDS011;36654;45.042;38.994;2023-04-03T15:03:04;3.08;;;2.88;;
50683;SDS011;36654;45.042;38.994;2023-04-03T15:05:29;4.65;;;3.47;;
50683;SDS011;36654;45.042;38.994;2023-04-03T15:07:55;3.08;;;2.70;;
50683;SDS011;36654;45.042;38.994;2023-04-03T15:10:24;5.55;;;3.70;;
50683;SDS011;36654;45.042;38.994;2023-04-03T15:12:52;6.97;;;3.88;;
50683;SDS011;36654;45.042;38.994;2023-04-03T15:15:19;6.72;;;4.10;;
50683;SDS011;36654;45.042;38.994;2023-04-03T15:17:46;6.30;;;3.80;;
50683;SDS011;36654;45.042;38.994;2023-04-03T15:20:16;6.15;;;3.35;;
50683;SDS011;36654;45.042;38.994;2023-04-03T15:22:44;4.57;;;3.58;;
50683;SDS011;36654;45.042;38.994;2023-04-03T15:25:09;6.38;;;3.35;;
50683;SDS011;36654;45.042;38.994;2023-04-03T15:27:36;7.80;;;3.78;;
50683;SDS011;36654;45.042;38.994;2023-04-03T15:30:03;4.68;;;3.40;;
50683;SDS011;36654;45.042;38.994;2023-04-03T15:32:31;13.43;;;3.13;;
50683;SDS011;36654;45.042;38.994;2023-04-03T15:34:57;4.35;;;3.85;;
50683;SDS011;36654;45.042;38.994;2023-04-03T15:37:22;7.75;;;3.60;;
50683;SDS011;36654;45.042;38.994;2023-04-03T15:39:48;7.45;;;3.88;;
50683;SDS011;36654;45.042;38.994;2023-04-03T15:42:14;11.02;;;5.30;;
50683;SDS011;36654;45.042;38.994;2023-04-03T15:44:40;6.07;;;3.78;;
50683;SDS011;36654;45.042;38.994;2023-04-03T15:47:05;5.70;;;3.45;;
50683;SDS011;36654;45.042;38.994;2023-04-03T15:49:34;6.10;;;3.17;;
50683;SDS011;36654;45.042;38.994;2023-04-03T15:52:00;6.78;;;3.67;;
50683;SDS011;36654;45.042;38.994;2023-04-03T15:54:26;5.82;;;3.92;;
50683;SDS011;36654;45.042;38.994;2023-04-03T15:56:54;6.20;;;3.80;;
50683;SDS011;36654;45.042;38.994;2023-04-03T15:59:20;6.68;;;3.95;;
50683;SDS011;36654;45.042;38.994;2023-04-03T16:01:46;9.73;;;3.85;;
50683;SDS011;36654;45.042;38.994;2023-04-03T16:04:12;7.32;;;3.95;;
50683;SDS011;36654;45.042;38.994;2023-04-03T16:06:38;3.90;;;3.30;;
50683;SDS011;36654;45.042;38.994;2023-04-03T16:09:04;9.77;;;3.60;;
50683;SDS011;36654;45.042;38.994;2023-04-03T16:11:30;9.68;;;3.83;;
50683;SDS011;36654;45.042;38.994;2023-04-03T16:13:55;10.70;;;3.78;;
50683;SDS011;36654;45.042;38.994;2023-04-03T16:16:22;7.03;;;3.95;;
50683;SDS011;36654;45.042;38.994;2023-04-03T16:18:49;6.38;;;3.97;;
50683;SDS011;36654;45.042;38.994;2023-04-03T16:21:15;6.00;;;3.63;;
50683;SDS011;36654;45.042;38.994;2023-04-03T16:23:42;7.30;;;4.35;;
50683;SDS011;36654;45.042;38.994;2023-04-03T16:26:08;10.90;;;3.67;;
50683;SDS011;36654;45.042;38.994;2023-04-03T16:28:34;5.30;;;3.60;;
50683;SDS011;36654;45.042;38.994;2023-04-03T16:31:00;5.13;;;3.35;;
50683;SDS011;36654;45.042;38.994;2023-04-03T16:33:27;8.05;;;3.35;;